sensor_id;sensor_type;location;lat;lon;timestamp;pressure;altitude;pressure_sealevel;temperature;humidity
62789;BME280;66401;42.016;21.454;2023-12-07T00:01:26;97958.19;;;7.28;100.00
62789;BME280;66401;42.016;21.454;2023-12-07T00:03:51;97949.50;;;7.21;100.00
62789;BME280;66401;42.016;21.454;2023-12-07T00:06:17;97959.00;;;7.29;100.00
62789;BME280;66401;42.016;21.454;2023-12-07T00:08:44;97952.19;;;7.28;100.00
62789;BME280;66401;42.016;21.454;2023-12-07T00:11:10;97951.41;;;7.27;100.00
62789;BME280;66401;42.016;21.454;2023-12-07T00:13:35;97961.22;;;7.32;100.00
62789;BME280;66401;42.016;21.454;2023-12-07T00:16:01;97966.59;;;7.30;100.00
62789;BME280;66401;42.016;21.454;2023-12-07T00:18:29;97965.78;;;7.30;100.00
62789;BME280;66401;42.016;21.454;2023-12-07T00:20:56;97954.19;;;7.26;100.00
62789;BME280;66401;42.016;21.454;2023-12-07T00:23:21;97982.22;;;7.37;100.00
62789;BME280;66401;42.016;21.454;2023-12-07T00:25:47;97973.84;;;7.35;100.00
62789;BME280;66401;42.016;21.454;2023-12-07T00:28:13;97974.44;;;7.37;100.00
62789;BME280;66401;42.016;21.454;2023-12-07T00:30:40;97974.09;;;7.40;100.00
62789;BME280;66401;42.016;21.454;2023-12-07T00:33:08;97975.06;;;7.39;100.00
62789;BME280;66401;42.016;21.454;2023-12-07T00:35:34;97975.06;;;7.39;100.00
62789;BME280;66401;42.016;21.454;2023-12-07T00:38:02;97973.03;;;7.34;100.00
62789;BME280;66401;42.016;21.454;2023-12-07T00:40:28;97976.84;;;7.38;100.00
62789;BME280;66401;42.016;21.454;2023-12-07T00:42:57;97964.72;;;7.39;100.00
62789;BME280;66401;42.016;21.454;2023-12-07T00:45:23;97968.28;;;7.38;100.00
62789;BME280;66401;42.016;21.454;2023-12-07T00:47:49;97969.09;;;7.38;100.00
62789;BME280;66401;42.016;21.454;2023-12-07T00:50:14;97971.13;;;7.43;100.00
62789;BME280;66401;42.016;21.454;2023-12-07T00:52:41;97972.28;;;7.40;100.00
62789;BME280;66401;42.016;21.454;2023-12-07T00:55:06;97957.22;;;7.44;100.00
62789;BME280;66401;42.016;21.454;2023-12-07T00:57:32;97967.91;;;7.41;100.00
62789;BME280;66401;42.016;21.454;2023-12-07T00:59:58;97968.91;;;7.40;100.00
62789;BME280;66401;42.016;21.454;2023-12-07T01:02:25;97973.91;;;7.41;100.00
62789;BME280;66401;42.016;21.454;2023-12-07T01:04:50;97975.69;;;7.41;100.00
62789;BME280;66401;42.016;21.454;2023-12-07T01:07:16;97976.44;;;7.35;100.00
62789;BME280;66401;42.016;21.454;2023-12-07T01:09:41;97985.00;;;7.35;100.00
62789;BME280;66401;42.016;21.454;2023-12-07T01:12:07;97977.13;;;7.29;100.00
62789;BME280;66401;42.016;21.454;2023-12-07T01:14:32;97984.53;;;7.32;100.00
62789;BME280;66401;42.016;21.454;2023-12-07T01:16:58;97983.66;;;7.25;100.00
62789;BME280;66401;42.016;21.454;2023-12-07T01:19:23;97990.06;;;7.29;100.00
62789;BME280;66401;42.016;21.454;2023-12-07T01:21:50;97984.91;;;7.29;100.00
62789;BME280;66401;42.016;21.454;2023-12-07T01:24:16;97980.88;;;7.26;100.00
62789;BME280;66401;42.016;21.454;2023-12-07T01:26:44;97969.97;;;7.31;100.00
62789;BME280;66401;42.016;21.454;2023-12-07T01:29:09;97969.78;;;7.32;100.00
62789;BME280;66401;42.016;21.454;2023-12-07T01:31:35;97956.41;;;7.29;100.00
62789;BME280;66401;42.016;21.454;2023-12-07T01:34:01;97958.28;;;7.35;100.00
62789;BME280;66401;42.016;21.454;2023-12-07T01:36:26;97952.47;;;7.33;100.00
62789;BME280;66401;42.016;21.454;2023-12-07T01:38:52;97950.84;;;7.32;100.00
62789;BME280;66401;42.016;21.454;2023-12-07T01:41:17;97942.28;;;7.31;100.00
62789;BME280;66401;42.016;21.454;2023-12-07T01:43:46;97942.75;;;7.35;100.00
62789;BME280;66401;42.016;21.454;2023-12-07T01:46:13;97952.38;;;7.41;100.00
62789;BME280;66401;42.016;21.454;2023-12-07T01:48:39;97950.41;;;7.43;100.00
62789;BME280;66401;42.016;21.454;2023-12-07T01:51:06;97949.25;;;7.45;100.00
62789;BME280;66401;42.016;21.454;2023-12-07T01:53:32;97954.06;;;7.49;100.00
62789;BME280;66401;42.016;21.454;2023-12-07T01:55:58;97946.84;;;7.44;100.00
62789;BME280;66401;42.016;21.454;2023-12-07T01:58:24;97960.06;;;7.49;100.00
62789;BME280;66401;42.016;21.454;2023-12-07T02:00:52;97946.50;;;7.47;100.00
62789;BME280;66401;42.016;21.454;2023-12-07T02:03:18;97952.72;;;7.53;100.00
62789;BME280;66401;42.016;21.454;2023-12-07T02:05:51;97940.41;;;7.55;100.00
62789;BME280;66401;42.016;21.454;2023-12-07T02:08:16;97944.78;;;7.54;100.00
62789;BME280;66401;42.016;21.454;2023-12-07T02:10:42;97927.25;;;7.41;100.00
62789;BME280;66401;42.016;21.454;2023-12-07T02:13:08;97930.94;;;7.47;100.00
62789;BME280;66401;42.016;21.454;2023-12-07T02:15:34;97930.56;;;7.50;100.00
62789;BME280;66401;42.016;21.454;2023-12-07T02:18:19;97925.13;;;7.45;100.00
62789;BME280;66401;42.016;21.454;2023-12-07T02:23:33;97935.84;;;7.57;100.00
62789;BME280;66401;42.016;21.454;2023-12-07T02:29:15;97926.66;;;7.54;100.00
62789;BME280;66401;42.016;21.454;2023-12-07T02:31:41;97923.41;;;7.52;100.00
62789;BME280;66401;42.016;21.454;2023-12-07T02:34:06;97916.00;;;7.49;100.00
62789;BME280;66401;42.016;21.454;2023-12-07T02:36:33;97922.59;;;7.52;100.00
62789;BME280;66401;42.016;21.454;2023-12-07T02:39:01;97924.59;;;7.50;100.00
62789;BME280;66401;42.016;21.454;2023-12-07T02:41:30;97934.25;;;7.56;100.00
62789;BME280;66401;42.016;21.454;2023-12-07T02:44:00;97914.59;;;7.46;100.00
62789;BME280;66401;42.016;21.454;2023-12-07T02:46:26;97928.88;;;7.57;100.00
62789;BME280;66401;42.016;21.454;2023-12-07T02:48:52;97932.25;;;7.58;100.00
62789;BME280;66401;42.016;21.454;2023-12-07T02:51:17;97913.94;;;7.59;100.00
62789;BME280;66401;42.016;21.454;2023-12-07T02:53:44;97918.50;;;7.57;100.00
62789;BME280;66401;42.016;21.454;2023-12-07T02:56:09;97918.31;;;7.59;100.00
62789;BME280;66401;42.016;21.454;2023-12-07T02:58:35;97913.69;;;7.54;100.00
62789;BME280;66401;42.016;21.454;2023-12-07T03:01:00;97928.16;;;7.63;100.00
62789;BME280;66401;42.016;21.454;2023-12-07T03:03:26;97917.72;;;7.57;100.00
62789;BME280;66401;42.016;21.454;2023-12-07T03:05:51;97922.69;;;7.58;100.00
62789;BME280;66401;42.016;21.454;2023-12-07T03:08:17;97920.66;;;7.54;100.00
62789;BME280;66401;42.016;21.454;2023-12-07T03:10:42;97915.47;;;7.54;100.00
62789;BME280;66401;42.016;21.454;2023-12-07T03:13:08;97922.31;;;7.61;100.00
62789;BME280;66401;42.016;21.454;2023-12-07T03:15:33;97929.50;;;7.59;100.00
62789;BME280;66401;42.016;21.454;2023-12-07T03:17:59;97904.66;;;7.50;100.00
62789;BME280;66401;42.016;21.454;2023-12-07T03:20:24;97923.69;;;7.57;100.00
62789;BME280;66401;42.016;21.454;2023-12-07T03:22:50;97928.16;;;7.63;100.00
62789;BME280;66401;42.016;21.454;2023-12-07T03:25:15;97932.34;;;7.64;100.00
62789;BME280;66401;42.016;21.454;2023-12-07T03:27:41;97938.34;;;7.65;100.00
62789;BME280;66401;42.016;21.454;2023-12-07T03:30:06;97901.34;;;7.41;100.00
62789;BME280;66401;42.016;21.454;2023-12-07T03:32:32;97940.31;;;7.63;100.00
62789;BME280;66401;42.016;21.454;2023-12-07T03:34:58;97932.53;;;7.48;100.00
62789;BME280;66401;42.016;21.454;2023-12-07T03:37:23;97932.91;;;7.45;100.00
62789;BME280;66401;42.016;21.454;2023-12-07T03:39:49;97950.06;;;7.46;100.00
62789;BME280;66401;42.016;21.454;2023-12-07T03:42:14;97952.03;;;7.44;100.00
62789;BME280;66401;42.016;21.454;2023-12-07T03:44:40;97963.09;;;7.38;100.00
62789;BME280;66401;42.016;21.454;2023-12-07T03:47:05;97956.31;;;7.37;100.00
62789;BME280;66401;42.016;21.454;2023-12-07T03:49:31;97956.69;;;7.34;100.00
62789;BME280;66401;42.016;21.454;2023-12-07T03:51:56;97948.91;;;7.34;100.00
62789;BME280;66401;42.016;21.454;2023-12-07T03:54:22;97959.78;;;7.29;100.00
62789;BME280;66401;42.016;21.454;2023-12-07T03:56:47;97959.34;;;7.26;100.00
62789;BME280;66401;42.016;21.454;2023-12-07T03:59:13;97945.69;;;7.17;100.00
62789;BME280;66401;42.016;21.454;2023-12-07T04:01:38;97953.38;;;7.25;100.00
62789;BME280;66401;42.016;21.454;2023-12-07T04:04:04;97949.69;;;7.20;100.00
62789;BME280;66401;42.016;21.454;2023-12-07T04:06:30;97952.72;;;7.23;100.00
62789;BME280;66401;42.016;21.454;2023-12-07T04:08:55;97962.13;;;7.24;100.00
62789;BME280;66401;42.016;21.454;2023-12-07T04:11:21;97954.69;;;7.21;100.00
62789;BME280;66401;42.016;21.454;2023-12-07T04:13:47;97954.50;;;7.23;100.00
62789;BME280;66401;42.016;21.454;2023-12-07T04:16:13;97942.91;;;7.18;100.00
62789;BME280;66401;42.016;21.454;2023-12-07T04:18:39;97954.19;;;7.26;100.00
62789;BME280;66401;42.016;21.454;2023-12-07T04:21:04;97948.09;;;7.18;100.00
62789;BME280;66401;42.016;21.454;2023-12-07T04:23:30;97961.59;;;7.29;100.00
62789;BME280;66401;42.016;21.454;2023-12-07T04:25:56;97958.88;;;7.22;100.00
62789;BME280;66401;42.016;21.454;2023-12-07T04:28:22;97966.13;;;7.27;100.00
62789;BME280;66401;42.016;21.454;2023-12-07T04:30:47;97965.78;;;7.30;100.00
62789;BME280;66401;42.016;21.454;2023-12-07T04:33:12;97974.97;;;7.32;100.00
62789;BME280;66401;42.016;21.454;2023-12-07T04:35:38;97972.38;;;7.32;100.00
62789;BME280;66401;42.016;21.454;2023-12-07T04:38:03;97965.22;;;7.20;100.00
62789;BME280;66401;42.016;21.454;2023-12-07T04:40:29;97979.34;;;7.32;100.00
62789;BME280;66401;42.016;21.454;2023-12-07T04:42:54;97975.97;;;7.31;100.00
62789;BME280;66401;42.016;21.454;2023-12-07T04:45:20;97974.53;;;7.29;100.00
62789;BME280;66401;42.016;21.454;2023-12-07T04:47:46;97989.72;;;7.32;100.00
62789;BME280;66401;42.016;21.454;2023-12-07T04:50:12;97987.47;;;7.29;100.00
62789;BME280;66401;42.016;21.454;2023-12-07T04:52:37;97996.88;;;7.30;100.00
62789;BME280;66401;42.016;21.454;2023-12-07T04:55:04;97989.88;;;7.15;100.00
62789;BME280;66401;42.016;21.454;2023-12-07T04:57:32;97995.50;;;7.19;100.00
62789;BME280;66401;42.016;21.454;2023-12-07T04:59:58;97980.22;;;7.09;100.00
62789;BME280;66401;42.016;21.454;2023-12-07T05:02:23;97989.78;;;7.09;100.00
62789;BME280;66401;42.016;21.454;2023-12-07T05:04:49;97997.38;;;7.10;100.00
62789;BME280;66401;42.016;21.454;2023-12-07T05:07:14;97997.38;;;7.10;100.00
62789;BME280;66401;42.016;21.454;2023-12-07T05:09:40;98000.94;;;7.09;100.00
62789;BME280;66401;42.016;21.454;2023-12-07T05:12:06;98006.75;;;7.11;100.00
62789;BME280;66401;42.016;21.454;2023-12-07T05:14:32;97995.41;;;7.12;100.00
62789;BME280;66401;42.016;21.454;2023-12-07T05:16:57;98008.66;;;7.17;100.00
62789;BME280;66401;42.016;21.454;2023-12-07T05:19:23;98000.59;;;7.12;100.00
62789;BME280;66401;42.016;21.454;2023-12-07T05:21:53;98007.03;;;7.16;100.00
62789;BME280;66401;42.016;21.454;2023-12-07T05:24:19;98011.50;;;7.23;100.00
62789;BME280;66401;42.016;21.454;2023-12-07T05:26:45;98008.03;;;7.15;100.00
62789;BME280;66401;42.016;21.454;2023-12-07T05:29:12;98019.63;;;7.20;100.00
62789;BME280;66401;42.016;21.454;2023-12-07T05:31:38;98017.72;;;7.13;100.00
62789;BME280;66401;42.016;21.454;2023-12-07T05:34:03;98016.94;;;7.13;100.00
62789;BME280;66401;42.016;21.454;2023-12-07T05:36:29;98018.44;;;7.07;100.00
62789;BME280;66401;42.016;21.454;2023-12-07T05:38:55;98020.97;;;7.15;100.00
62789;BME280;66401;42.016;21.454;2023-12-07T05:41:20;98009.75;;;7.00;100.00
62789;BME280;66401;42.016;21.454;2023-12-07T05:43:46;98025.59;;;7.05;100.00
62789;BME280;66401;42.016;21.454;2023-12-07T05:46:11;98035.84;;;7.13;100.00
62789;BME280;66401;42.016;21.454;2023-12-07T05:48:37;98033.63;;;7.10;100.00
62789;BME280;66401;42.016;21.454;2023-12-07T05:51:03;98035.31;;;7.03;100.00
62789;BME280;66401;42.016;21.454;2023-12-07T05:53:28;98038.06;;;7.02;100.00
62789;BME280;66401;42.016;21.454;2023-12-07T05:55:54;98044.06;;;7.02;100.00
62789;BME280;66401;42.016;21.454;2023-12-07T05:58:20;98030.72;;;6.91;100.00
62789;BME280;66401;42.016;21.454;2023-12-07T06:00:45;98027.31;;;6.90;100.00
62789;BME280;66401;42.016;21.454;2023-12-07T06:03:13;98049.28;;;6.94;100.00
62789;BME280;66401;42.016;21.454;2023-12-07T06:05:39;98038.38;;;6.84;100.00
62789;BME280;66401;42.016;21.454;2023-12-07T06:08:05;98047.22;;;6.89;100.00
62789;BME280;66401;42.016;21.454;2023-12-07T06:10:30;98024.28;;;6.64;100.00
62789;BME280;66401;42.016;21.454;2023-12-07T06:12:56;98037.38;;;6.62;100.00
62789;BME280;66401;42.016;21.454;2023-12-07T06:15:30;98061.13;;;6.66;100.00
62789;BME280;66401;42.016;21.454;2023-12-07T06:17:55;98053.44;;;6.57;100.00
62789;BME280;66401;42.016;21.454;2023-12-07T06:20:22;98064.13;;;6.54;100.00
62789;BME280;66401;42.016;21.454;2023-12-07T06:22:48;98063.72;;;6.43;100.00
62789;BME280;66401;42.016;21.454;2023-12-07T06:25:13;98055.00;;;6.36;100.00
62789;BME280;66401;42.016;21.454;2023-12-07T06:27:39;98071.00;;;6.39;100.00
62789;BME280;66401;42.016;21.454;2023-12-07T06:30:05;98054.63;;;6.16;100.00
62789;BME280;66401;42.016;21.454;2023-12-07T06:32:31;98072.34;;;6.27;100.00
62789;BME280;66401;42.016;21.454;2023-12-07T06:34:57;98072.69;;;6.24;100.00
62789;BME280;66401;42.016;21.454;2023-12-07T06:37:23;98080.09;;;6.27;100.00
62789;BME280;66401;42.016;21.454;2023-12-07T06:39:48;98079.81;;;6.22;100.00
62789;BME280;66401;42.016;21.454;2023-12-07T06:42:14;98076.19;;;6.00;100.00
62789;BME280;66401;42.016;21.454;2023-12-07T06:44:42;98076.31;;;6.07;100.00
62789;BME280;66401;42.016;21.454;2023-12-07T06:47:08;98056.34;;;5.84;100.00
62789;BME280;66401;42.016;21.454;2023-12-07T06:49:34;98089.44;;;5.97;100.00
62789;BME280;66401;42.016;21.454;2023-12-07T06:51:59;98087.66;;;5.97;100.00
62789;BME280;66401;42.016;21.454;2023-12-07T06:54:24;98089.31;;;5.82;100.00
62789;BME280;66401;42.016;21.454;2023-12-07T06:56:50;98077.66;;;5.78;100.00
62789;BME280;66401;42.016;21.454;2023-12-07T06:59:15;98082.53;;;5.73;100.00
62789;BME280;66401;42.016;21.454;2023-12-07T07:01:41;98081.22;;;5.77;100.00
62789;BME280;66401;42.016;21.454;2023-12-07T07:04:06;98100.44;;;5.83;100.00
62789;BME280;66401;42.016;21.454;2023-12-07T07:06:33;98089.81;;;5.69;100.00
62789;BME280;66401;42.016;21.454;2023-12-07T07:09:00;98101.78;;;5.70;100.00
62789;BME280;66401;42.016;21.454;2023-12-07T07:11:25;98105.16;;;5.79;100.00
62789;BME280;66401;42.016;21.454;2023-12-07T07:13:51;98113.22;;;5.68;100.00
62789;BME280;66401;42.016;21.454;2023-12-07T07:16:17;98108.53;;;5.71;100.00
62789;BME280;66401;42.016;21.454;2023-12-07T07:18:42;98117.41;;;5.69;100.00
62789;BME280;66401;42.016;21.454;2023-12-07T07:21:07;98098.53;;;5.68;100.00
62789;BME280;66401;42.016;21.454;2023-12-07T07:23:34;98117.91;;;5.81;100.00
62789;BME280;66401;42.016;21.454;2023-12-07T07:26:00;98125.16;;;5.77;100.00
62789;BME280;66401;42.016;21.454;2023-12-07T07:28:26;98120.00;;;5.69;100.00
62789;BME280;66401;42.016;21.454;2023-12-07T07:30:51;98124.56;;;5.42;100.00
62789;BME280;66401;42.016;21.454;2023-12-07T07:33:18;98137.78;;;5.56;100.00
62789;BME280;66401;42.016;21.454;2023-12-07T07:35:44;98128.13;;;5.41;100.00
62789;BME280;66401;42.016;21.454;2023-12-07T07:38:09;98119.06;;;5.29;100.00
62789;BME280;66401;42.016;21.454;2023-12-07T07:40:34;98127.47;;;5.15;100.00
62789;BME280;66401;42.016;21.454;2023-12-07T07:43:01;98141.34;;;5.30;100.00
62789;BME280;66401;42.016;21.454;2023-12-07T07:45:26;98138.75;;;5.38;100.00
62789;BME280;66401;42.016;21.454;2023-12-07T07:47:52;98138.13;;;5.44;100.00
62789;BME280;66401;42.016;21.454;2023-12-07T07:50:17;98140.69;;;5.44;100.00
62789;BME280;66401;42.016;21.454;2023-12-07T07:52:43;98151.50;;;5.40;100.00
62789;BME280;66401;42.016;21.454;2023-12-07T07:55:10;98151.69;;;5.46;100.00
62789;BME280;66401;42.016;21.454;2023-12-07T07:57:35;98160.88;;;5.49;100.00
62789;BME280;66401;42.016;21.454;2023-12-07T08:00:01;98161.03;;;5.23;100.00
62789;BME280;66401;42.016;21.454;2023-12-07T08:02:27;98165.38;;;5.39;100.00
62789;BME280;66401;42.016;21.454;2023-12-07T08:04:52;98156.69;;;5.24;100.00
62789;BME280;66401;42.016;21.454;2023-12-07T08:07:18;98158.28;;;5.08;100.00
62789;BME280;66401;42.016;21.454;2023-12-07T08:09:44;98183.63;;;5.37;100.00
62789;BME280;66401;42.016;21.454;2023-12-07T08:12:09;98187.19;;;5.53;100.00
62789;BME280;66401;42.016;21.454;2023-12-07T08:14:35;98187.22;;;5.61;100.00
62789;BME280;66401;42.016;21.454;2023-12-07T08:17:02;98186.88;;;5.64;100.00
62789;BME280;66401;42.016;21.454;2023-12-07T08:19:28;98185.91;;;5.57;100.00
62789;BME280;66401;42.016;21.454;2023-12-07T08:21:53;98192.03;;;5.64;100.00
62789;BME280;66401;42.016;21.454;2023-12-07T08:24:19;98191.72;;;5.75;100.00
62789;BME280;66401;42.016;21.454;2023-12-07T08:26:44;98192.50;;;5.75;100.00
62789;BME280;66401;42.016;21.454;2023-12-07T08:29:10;98194.97;;;5.61;100.00
62789;BME280;66401;42.016;21.454;2023-12-07T08:31:35;98179.75;;;5.66;100.00
62789;BME280;66401;42.016;21.454;2023-12-07T08:34:01;98188.16;;;5.76;100.00
62789;BME280;66401;42.016;21.454;2023-12-07T08:36:27;98195.91;;;5.84;100.00
62789;BME280;66401;42.016;21.454;2023-12-07T08:38:53;98187.34;;;5.75;100.00
62789;BME280;66401;42.016;21.454;2023-12-07T08:41:19;98197.69;;;6.00;100.00
62789;BME280;66401;42.016;21.454;2023-12-07T08:43:44;98200.09;;;6.18;100.00
62789;BME280;66401;42.016;21.454;2023-12-07T08:46:10;98209.47;;;6.19;100.00
62789;BME280;66401;42.016;21.454;2023-12-07T08:48:36;98195.88;;;6.17;100.00
62789;BME280;66401;42.016;21.454;2023-12-07T08:51:03;98199.47;;;5.99;100.00
62789;BME280;66401;42.016;21.454;2023-12-07T08:53:28;98198.00;;;6.05;100.00
62789;BME280;66401;42.016;21.454;2023-12-07T08:55:54;98193.81;;;5.96;100.00
62789;BME280;66401;42.016;21.454;2023-12-07T08:58:20;98212.38;;;6.08;100.00
62789;BME280;66401;42.016;21.454;2023-12-07T09:00:46;98205.94;;;6.03;100.00
62789;BME280;66401;42.016;21.454;2023-12-07T09:03:12;98201.41;;;6.06;100.00
62789;BME280;66401;42.016;21.454;2023-12-07T09:05:37;98198.50;;;6.09;100.00
62789;BME280;66401;42.016;21.454;2023-12-07T09:08:03;98203.66;;;6.09;100.00
62789;BME280;66401;42.016;21.454;2023-12-07T09:10:28;98197.19;;;6.05;100.00
62789;BME280;66401;42.016;21.454;2023-12-07T09:12:54;98200.09;;;5.85;100.00
62789;BME280;66401;42.016;21.454;2023-12-07T09:15:22;98204.00;;;5.89;100.00
62789;BME280;66401;42.016;21.454;2023-12-07T09:17:54;98190.75;;;5.68;100.00
62789;BME280;66401;42.016;21.454;2023-12-07T09:20:20;98183.31;;;5.89;100.00
62789;BME280;66401;42.016;21.454;2023-12-07T09:22:46;98196.41;;;5.96;100.00
62789;BME280;66401;42.016;21.454;2023-12-07T09:25:13;98185.56;;;5.76;100.00
62789;BME280;66401;42.016;21.454;2023-12-07T09:27:40;98201.72;;;5.78;100.00
62789;BME280;66401;42.016;21.454;2023-12-07T09:30:08;98213.03;;;5.53;100.00
62789;BME280;66401;42.016;21.454;2023-12-07T09:32:37;98193.66;;;5.57;100.00
62789;BME280;66401;42.016;21.454;2023-12-07T09:35:04;98210.78;;;5.74;100.00
62789;BME280;66401;42.016;21.454;2023-12-07T09:37:32;98183.66;;;5.45;100.00
62789;BME280;66401;42.016;21.454;2023-12-07T09:40:00;98205.13;;;5.54;100.00
62789;BME280;66401;42.016;21.454;2023-12-07T09:42:29;98208.34;;;5.56;100.00
62789;BME280;66401;42.016;21.454;2023-12-07T09:44:58;98211.56;;;5.58;100.00
62789;BME280;66401;42.016;21.454;2023-12-07T09:47:26;98203.03;;;5.66;100.00
62789;BME280;66401;42.016;21.454;2023-12-07T09:49:58;98204.16;;;5.55;100.00
62789;BME280;66401;42.016;21.454;2023-12-07T09:52:25;98213.03;;;5.61;100.00
62789;BME280;66401;42.016;21.454;2023-12-07T09:54:55;98213.69;;;5.63;100.00
62789;BME280;66401;42.016;21.454;2023-12-07T09:57:22;98205.28;;;5.44;100.00
62789;BME280;66401;42.016;21.454;2023-12-07T09:59:48;98213.00;;;5.36;100.00
62789;BME280;66401;42.016;21.454;2023-12-07T10:02:13;98213.34;;;5.33;100.00
62789;BME280;66401;42.016;21.454;2023-12-07T10:04:39;98208.81;;;5.35;100.00
62789;BME280;66401;42.016;21.454;2023-12-07T10:07:05;98215.91;;;5.25;100.00
62789;BME280;66401;42.016;21.454;2023-12-07T10:09:40;98211.38;;;5.19;99.49
62789;BME280;66401;42.016;21.454;2023-12-07T10:12:06;98220.59;;;5.30;99.94
62789;BME280;66401;42.016;21.454;2023-12-07T10:14:32;98205.56;;;5.25;99.73
62789;BME280;66401;42.016;21.454;2023-12-07T10:16:59;98214.78;;;5.28;99.11
62789;BME280;66401;42.016;21.454;2023-12-07T10:19:25;98214.28;;;5.24;98.70
62789;BME280;66401;42.016;21.454;2023-12-07T10:21:53;98209.28;;;5.23;98.75
62789;BME280;66401;42.016;21.454;2023-12-07T10:24:20;98202.84;;;5.27;98.75
62789;BME280;66401;42.016;21.454;2023-12-07T10:26:46;98195.22;;;5.17;98.26
62789;BME280;66401;42.016;21.454;2023-12-07T10:29:12;98195.59;;;5.22;98.49
62789;BME280;66401;42.016;21.454;2023-12-07T10:31:38;98195.72;;;5.29;98.05
62789;BME280;66401;42.016;21.454;2023-12-07T10:34:04;98214.63;;;5.21;98.76
62789;BME280;66401;42.016;21.454;2023-12-07T10:36:30;98200.09;;;5.12;97.66
62789;BME280;66401;42.016;21.454;2023-12-07T10:38:56;98213.28;;;5.09;98.75
62789;BME280;66401;42.016;21.454;2023-12-07T10:41:23;98196.84;;;5.18;98.04
62789;BME280;66401;42.016;21.454;2023-12-07T10:43:53;98200.56;;;5.15;98.18
62789;BME280;66401;42.016;21.454;2023-12-07T10:46:21;98184.44;;;5.22;98.72
62789;BME280;66401;42.016;21.454;2023-12-07T10:48:55;98179.13;;;5.23;97.60
62789;BME280;66401;42.016;21.454;2023-12-07T10:51:45;98198.81;;;5.49;97.21
62789;BME280;66401;42.016;21.454;2023-12-07T10:54:19;98194.16;;;5.52;96.29
62789;BME280;66401;42.016;21.454;2023-12-07T10:56:48;98173.81;;;5.41;96.96
62789;BME280;66401;42.016;21.454;2023-12-07T10:59:16;98184.63;;;5.61;97.15
62789;BME280;66401;42.016;21.454;2023-12-07T11:01:43;98200.94;;;5.69;97.00
62789;BME280;66401;42.016;21.454;2023-12-07T11:04:13;98189.78;;;5.53;95.99
62789;BME280;66401;42.016;21.454;2023-12-07T11:06:45;98169.59;;;5.40;96.14
62789;BME280;66401;42.016;21.454;2023-12-07T11:09:21;98190.75;;;5.35;97.06
62789;BME280;66401;42.016;21.454;2023-12-07T11:11:52;98175.56;;;5.32;96.38
62789;BME280;66401;42.016;21.454;2023-12-07T11:14:22;98181.38;;;5.42;98.30
62789;BME280;66401;42.016;21.454;2023-12-07T11:16:48;98177.81;;;5.35;98.00
62789;BME280;66401;42.016;21.454;2023-12-07T11:22:05;98173.94;;;5.56;97.24
62789;BME280;66401;42.016;21.454;2023-12-07T11:24:31;98184.63;;;5.61;96.51
62789;BME280;66401;42.016;21.454;2023-12-07T11:26:57;98188.50;;;5.73;96.44
62789;BME280;66401;42.016;21.454;2023-12-07T11:29:29;98189.75;;;5.77;96.16
62789;BME280;66401;42.016;21.454;2023-12-07T11:31:56;98208.19;;;5.82;97.27
62789;BME280;66401;42.016;21.454;2023-12-07T11:34:42;98189.13;;;5.75;96.44
62789;BME280;66401;42.016;21.454;2023-12-07T11:37:09;98193.66;;;5.81;95.92
62789;BME280;66401;42.016;21.454;2023-12-07T11:39:39;98187.50;;;5.74;95.01
62789;BME280;66401;42.016;21.454;2023-12-07T11:42:17;98199.13;;;5.86;95.37
62789;BME280;66401;42.016;21.454;2023-12-07T11:44:44;98186.56;;;5.91;98.09
62789;BME280;66401;42.016;21.454;2023-12-07T11:47:18;98207.53;;;6.05;97.71
62789;BME280;66401;42.016;21.454;2023-12-07T11:49:45;98197.84;;;6.07;97.23
62789;BME280;66401;42.016;21.454;2023-12-07T11:52:20;98205.56;;;6.23;98.31
62789;BME280;66401;42.016;21.454;2023-12-07T11:54:47;98192.81;;;6.21;99.02
62789;BME280;66401;42.016;21.454;2023-12-07T11:57:16;98191.31;;;6.27;99.06
62789;BME280;66401;42.016;21.454;2023-12-07T11:59:46;98193.41;;;6.31;99.13
62789;BME280;66401;42.016;21.454;2023-12-07T12:02:13;98210.72;;;6.39;100.00
62789;BME280;66401;42.016;21.454;2023-12-07T12:04:42;98195.50;;;6.36;99.81
62789;BME280;66401;42.016;21.454;2023-12-07T12:07:08;98201.34;;;6.30;98.27
62789;BME280;66401;42.016;21.454;2023-12-07T12:09:34;98199.13;;;6.19;97.92
62789;BME280;66401;42.016;21.454;2023-12-07T12:12:00;98190.41;;;6.03;96.62
62789;BME280;66401;42.016;21.454;2023-12-07T12:14:26;98189.13;;;5.99;96.33
62789;BME280;66401;42.016;21.454;2023-12-07T12:16:52;98191.72;;;5.99;96.03
62789;BME280;66401;42.016;21.454;2023-12-07T12:19:18;98203.34;;;6.12;97.47
62789;BME280;66401;42.016;21.454;2023-12-07T12:21:45;98210.13;;;6.13;98.00
62789;BME280;66401;42.016;21.454;2023-12-07T12:24:12;98198.00;;;6.05;99.00
62789;BME280;66401;42.016;21.454;2023-12-07T12:26:40;98215.75;;;6.16;99.54
62789;BME280;66401;42.016;21.454;2023-12-07T12:29:07;98217.88;;;6.21;100.00
62789;BME280;66401;42.016;21.454;2023-12-07T12:31:34;98201.09;;;6.09;99.40
62789;BME280;66401;42.016;21.454;2023-12-07T12:34:06;98220.13;;;6.16;99.24
62789;BME280;66401;42.016;21.454;2023-12-07T12:36:34;98220.47;;;6.13;99.16
62789;BME280;66401;42.016;21.454;2023-12-07T12:39:00;98197.22;;;5.96;99.09
62789;BME280;66401;42.016;21.454;2023-12-07T12:41:27;98213.03;;;6.01;99.51
62789;BME280;66401;42.016;21.454;2023-12-07T12:43:56;98206.44;;;5.91;100.00
62789;BME280;66401;42.016;21.454;2023-12-07T12:46:23;98221.59;;;5.86;100.00
62789;BME280;66401;42.016;21.454;2023-12-07T12:48:59;98211.41;;;5.76;99.80
62789;BME280;66401;42.016;21.454;2023-12-07T12:51:26;98224.66;;;5.73;100.00
62789;BME280;66401;42.016;21.454;2023-12-07T12:53:53;98218.84;;;5.71;100.00
62789;BME280;66401;42.016;21.454;2023-12-07T12:56:20;98217.72;;;5.65;100.00
62789;BME280;66401;42.016;21.454;2023-12-07T12:58:50;98236.44;;;5.67;100.00